sensor_id;sensor_type;location;lat;lon;timestamp;pressure;altitude;pressure_sealevel;temperature;humidity
33506;BME280;19843;51.040;13.782;2024-02-26T00:01:59;99091.66;;;5.75;78.20
33506;BME280;19843;51.040;13.782;2024-02-26T00:04:27;99085.69;;;5.64;77.16
33506;BME280;19843;51.040;13.782;2024-02-26T00:06:54;99090.72;;;5.50;77.73
33506;BME280;19843;51.040;13.782;2024-02-26T00:09:22;99077.13;;;5.36;79.03
33506;BME280;19843;51.040;13.782;2024-02-26T00:11:50;99083.16;;;5.38;78.06
33506;BME280;19843;51.040;13.782;2024-02-26T00:14:18;99082.19;;;5.55;77.41
33506;BME280;19843;51.040;13.782;2024-02-26T00:16:46;99080.47;;;5.29;77.31
33506;BME280;19843;51.040;13.782;2024-02-26T00:19:13;99091.59;;;5.42;77.26
33506;BME280;19843;51.040;13.782;2024-02-26T00:21:41;99079.38;;;5.43;76.61
33506;BME280;19843;51.040;13.782;2024-02-26T00:24:08;99076.75;;;5.25;77.54
33506;BME280;19843;51.040;13.782;2024-02-26T00:26:36;99079.78;;;5.32;76.52
33506;BME280;19843;51.040;13.782;2024-02-26T00:29:03;99076.75;;;5.25;77.88
33506;BME280;19843;51.040;13.782;2024-02-26T00:31:32;99077.09;;;5.24;77.98
33506;BME280;19843;51.040;13.782;2024-02-26T00:34:00;99070.88;;;5.27;77.16
33506;BME280;19843;51.040;13.782;2024-02-26T00:36:28;99068.56;;;5.08;78.35
33506;BME280;19843;51.040;13.782;2024-02-26T00:38:55;99068.09;;;5.06;77.57
33506;BME280;19843;51.040;13.782;2024-02-26T00:41:23;99068.25;;;5.09;77.74
33506;BME280;19843;51.040;13.782;2024-02-26T00:43:50;99074.25;;;5.11;77.38
33506;BME280;19843;51.040;13.782;2024-02-26T00:46:18;99063.44;;;4.98;77.81
33506;BME280;19843;51.040;13.782;2024-02-26T00:48:46;99066.75;;;5.12;76.69
33506;BME280;19843;51.040;13.782;2024-02-26T00:51:14;99063.31;;;5.15;76.17
33506;BME280;19843;51.040;13.782;2024-02-26T00:53:42;99061.38;;;5.16;76.07
33506;BME280;19843;51.040;13.782;2024-02-26T00:56:09;99054.72;;;5.08;76.13
33506;BME280;19843;51.040;13.782;2024-02-26T00:58:37;99057.84;;;5.06;76.45
33506;BME280;19843;51.040;13.782;2024-02-26T01:01:04;99051.41;;;4.94;77.41
33506;BME280;19843;51.040;13.782;2024-02-26T01:03:32;99066.75;;;5.12;76.44
33506;BME280;19843;51.040;13.782;2024-02-26T01:06:01;99059.94;;;5.09;77.09
33506;BME280;19843;51.040;13.782;2024-02-26T01:08:28;99049.00;;;4.92;78.00
33506;BME280;19843;51.040;13.782;2024-02-26T01:10:57;99050.34;;;4.86;78.55
33506;BME280;19843;51.040;13.782;2024-02-26T01:13:25;99056.84;;;4.90;78.08
33506;BME280;19843;51.040;13.782;2024-02-26T01:15:52;99047.72;;;4.60;79.97
33506;BME280;19843;51.040;13.782;2024-02-26T01:18:20;99040.25;;;4.90;78.26
33506;BME280;19843;51.040;13.782;2024-02-26T01:20:47;99052.75;;;4.67;79.03
33506;BME280;19843;51.040;13.782;2024-02-26T01:23:16;99041.16;;;4.73;80.51
33506;BME280;19843;51.040;13.782;2024-02-26T01:25:44;99043.13;;;4.94;79.16
33506;BME280;19843;51.040;13.782;2024-02-26T01:28:11;99032.69;;;4.99;80.10
33506;BME280;19843;51.040;13.782;2024-02-26T01:30:39;99031.69;;;5.04;80.20
33506;BME280;19843;51.040;13.782;2024-02-26T01:33:06;99034.34;;;5.12;78.46
33506;BME280;19843;51.040;13.782;2024-02-26T01:35:34;99032.75;;;5.11;77.66
33506;BME280;19843;51.040;13.782;2024-02-26T01:38:02;99037.59;;;4.94;78.05
33506;BME280;19843;51.040;13.782;2024-02-26T01:40:30;99020.53;;;4.71;80.11
33506;BME280;19843;51.040;13.782;2024-02-26T01:42:59;99017.63;;;4.88;80.05
33506;BME280;19843;51.040;13.782;2024-02-26T01:45:26;99011.56;;;4.44;82.08
33506;BME280;19843;51.040;13.782;2024-02-26T01:47:55;99029.44;;;4.76;81.21
33506;BME280;19843;51.040;13.782;2024-02-26T01:50:23;99015.97;;;4.75;80.26
33506;BME280;19843;51.040;13.782;2024-02-26T01:52:52;99008.97;;;4.69;79.90
33506;BME280;19843;51.040;13.782;2024-02-26T01:55:22;99007.34;;;4.47;81.64
33506;BME280;19843;51.040;13.782;2024-02-26T01:57:52;99006.19;;;4.48;81.07
33506;BME280;19843;51.040;13.782;2024-02-26T02:00:21;99006.63;;;4.58;80.02
33506;BME280;19843;51.040;13.782;2024-02-26T02:02:49;99004.91;;;4.45;78.96
33506;BME280;19843;51.040;13.782;2024-02-26T02:05:20;99003.69;;;4.55;79.07
33506;BME280;19843;51.040;13.782;2024-02-26T02:07:48;98993.28;;;4.60;79.42
33506;BME280;19843;51.040;13.782;2024-02-26T02:10:16;98988.81;;;4.68;78.38
33506;BME280;19843;51.040;13.782;2024-02-26T02:12:44;98995.75;;;4.74;78.06
33506;BME280;19843;51.040;13.782;2024-02-26T02:15:13;99005.75;;;4.67;78.74
33506;BME280;19843;51.040;13.782;2024-02-26T02:17:41;98986.06;;;4.68;78.37
33506;BME280;19843;51.040;13.782;2024-02-26T02:20:09;98992.13;;;4.32;79.87
33506;BME280;19843;51.040;13.782;2024-02-26T02:22:43;98990.50;;;4.31;78.88
33506;BME280;19843;51.040;13.782;2024-02-26T02:25:11;98989.44;;;4.23;80.36
33506;BME280;19843;51.040;13.782;2024-02-26T02:27:39;98991.16;;;3.98;81.60
33506;BME280;19843;51.040;13.782;2024-02-26T02:30:07;98989.84;;;4.34;80.89
33506;BME280;19843;51.040;13.782;2024-02-26T02:32:37;98988.25;;;4.33;80.08
33506;BME280;19843;51.040;13.782;2024-02-26T02:35:07;98993.75;;;4.33;78.70
33506;BME280;19843;51.040;13.782;2024-02-26T02:37:35;99000.97;;;4.17;80.38
33506;BME280;19843;51.040;13.782;2024-02-26T02:40:06;98996.34;;;4.00;81.13
33506;BME280;19843;51.040;13.782;2024-02-26T02:42:33;98990.94;;;4.12;79.85
33506;BME280;19843;51.040;13.782;2024-02-26T02:45:01;98983.66;;;4.37;78.91
33506;BME280;19843;51.040;13.782;2024-02-26T02:47:28;98982.66;;;4.42;77.98
33506;BME280;19843;51.040;13.782;2024-02-26T02:49:56;98974.28;;;4.29;77.57
33506;BME280;19843;51.040;13.782;2024-02-26T02:52:23;98980.94;;;4.28;77.83
33506;BME280;19843;51.040;13.782;2024-02-26T02:54:50;98988.03;;;4.08;78.51
33506;BME280;19843;51.040;13.782;2024-02-26T02:57:19;98991.03;;;4.24;78.11
33506;BME280;19843;51.040;13.782;2024-02-26T02:59:47;98990.28;;;4.15;78.40
33506;BME280;19843;51.040;13.782;2024-02-26T03:02:14;98986.44;;;4.37;78.15
33506;BME280;19843;51.040;13.782;2024-02-26T03:04:42;98992.50;;;4.22;78.19
33506;BME280;19843;51.040;13.782;2024-02-26T03:07:09;98989.31;;;4.41;77.11
33506;BME280;19843;51.040;13.782;2024-02-26T03:09:37;98996.56;;;4.24;77.65
33506;BME280;19843;51.040;13.782;2024-02-26T03:12:04;98998.34;;;4.29;77.86
33506;BME280;19843;51.040;13.782;2024-02-26T03:14:33;98990.81;;;4.38;77.45
33506;BME280;19843;51.040;13.782;2024-02-26T03:17:00;99004.94;;;4.36;78.10
33506;BME280;19843;51.040;13.782;2024-02-26T03:19:28;98995.06;;;4.27;78.82
33506;BME280;19843;51.040;13.782;2024-02-26T03:21:55;99005.09;;;4.40;76.72
33506;BME280;19843;51.040;13.782;2024-02-26T03:24:23;98993.63;;;4.29;76.41
33506;BME280;19843;51.040;13.782;2024-02-26T03:26:50;98999.00;;;3.88;78.48
33506;BME280;19843;51.040;13.782;2024-02-26T03:29:18;99000.09;;;4.04;77.60
33506;BME280;19843;51.040;13.782;2024-02-26T03:31:47;99014.38;;;3.97;78.70
33506;BME280;19843;51.040;13.782;2024-02-26T03:34:15;99007.78;;;3.90;78.63
33506;BME280;19843;51.040;13.782;2024-02-26T03:36:44;99008.06;;;3.88;77.88
33506;BME280;19843;51.040;13.782;2024-02-26T03:39:11;99010.84;;;3.88;78.89
33506;BME280;19843;51.040;13.782;2024-02-26T03:41:38;99021.69;;;3.93;78.35
33506;BME280;19843;51.040;13.782;2024-02-26T03:44:06;99017.44;;;3.40;81.66
33506;BME280;19843;51.040;13.782;2024-02-26T03:46:33;99025.72;;;3.40;82.60
33506;BME280;19843;51.040;13.782;2024-02-26T03:49:02;99024.56;;;3.41;82.02
33506;BME280;19843;51.040;13.782;2024-02-26T03:51:30;99026.63;;;3.79;80.40
33506;BME280;19843;51.040;13.782;2024-02-26T03:53:59;99024.81;;;3.83;79.47
33506;BME280;19843;51.040;13.782;2024-02-26T03:56:27;99022.69;;;3.89;78.62
33506;BME280;19843;51.040;13.782;2024-02-26T03:58:54;99017.00;;;3.94;78.54
33506;BME280;19843;51.040;13.782;2024-02-26T04:01:22;99018.56;;;4.03;78.18
33506;BME280;19843;51.040;13.782;2024-02-26T04:03:49;99031.09;;;4.01;77.65
33506;BME280;19843;51.040;13.782;2024-02-26T04:06:18;99030.19;;;3.79;78.72
33506;BME280;19843;51.040;13.782;2024-02-26T04:08:47;99029.91;;;3.72;79.27
33506;BME280;19843;51.040;13.782;2024-02-26T04:11:15;99032.75;;;3.84;78.63
33506;BME280;19843;51.040;13.782;2024-02-26T04:13:44;99034.06;;;3.87;78.55
33506;BME280;19843;51.040;13.782;2024-02-26T04:16:15;99033.88;;;3.92;78.79
33506;BME280;19843;51.040;13.782;2024-02-26T04:18:43;99038.16;;;3.81;78.74
33506;BME280;19843;51.040;13.782;2024-02-26T04:21:10;99037.31;;;3.89;77.41
33506;BME280;19843;51.040;13.782;2024-02-26T04:23:39;99031.50;;;3.82;78.61
33506;BME280;19843;51.040;13.782;2024-02-26T04:26:07;99035.75;;;3.71;79.75
33506;BME280;19843;51.040;13.782;2024-02-26T04:28:34;99032.47;;;3.77;79.84
33506;BME280;19843;51.040;13.782;2024-02-26T04:31:02;99036.22;;;3.64;79.82
33506;BME280;19843;51.040;13.782;2024-02-26T04:33:30;99029.84;;;3.90;78.62
33506;BME280;19843;51.040;13.782;2024-02-26T04:35:57;99036.22;;;3.81;79.19
33506;BME280;19843;51.040;13.782;2024-02-26T04:38:25;99030.66;;;3.90;78.30
33506;BME280;19843;51.040;13.782;2024-02-26T04:40:54;99039.44;;;3.75;79.83
33506;BME280;19843;51.040;13.782;2024-02-26T04:43:21;99039.56;;;3.96;79.66
33506;BME280;19843;51.040;13.782;2024-02-26T04:45:49;99037.63;;;3.88;79.42
33506;BME280;19843;51.040;13.782;2024-02-26T04:48:16;99033.72;;;3.89;79.44
33506;BME280;19843;51.040;13.782;2024-02-26T04:50:43;99036.03;;;3.87;80.32
33506;BME280;19843;51.040;13.782;2024-02-26T04:53:11;99034.84;;;3.96;80.08
33506;BME280;19843;51.040;13.782;2024-02-26T04:55:38;99034.22;;;3.99;78.80
33506;BME280;19843;51.040;13.782;2024-02-26T04:58:07;99042.19;;;3.83;78.93
33506;BME280;19843;51.040;13.782;2024-02-26T05:00:35;99042.06;;;3.80;81.09
33506;BME280;19843;51.040;13.782;2024-02-26T05:03:03;99049.56;;;3.53;81.04
33506;BME280;19843;51.040;13.782;2024-02-26T05:05:30;99048.94;;;3.48;80.57
33506;BME280;19843;51.040;13.782;2024-02-26T05:07:58;99047.59;;;3.63;80.40
33506;BME280;19843;51.040;13.782;2024-02-26T05:10:25;99060.28;;;3.55;79.49
33506;BME280;19843;51.040;13.782;2024-02-26T05:12:52;99049.84;;;3.69;79.22
33506;BME280;19843;51.040;13.782;2024-02-26T05:15:21;99062.38;;;3.75;78.92
33506;BME280;19843;51.040;13.782;2024-02-26T05:17:49;99058.81;;;3.66;78.86
33506;BME280;19843;51.040;13.782;2024-02-26T05:20:16;99064.66;;;3.56;79.83
33506;BME280;19843;51.040;13.782;2024-02-26T05:22:44;99073.75;;;3.56;80.05
33506;BME280;19843;51.040;13.782;2024-02-26T05:25:11;99074.75;;;3.43;80.07
33506;BME280;19843;51.040;13.782;2024-02-26T05:27:39;99071.47;;;3.50;81.09
33506;BME280;19843;51.040;13.782;2024-02-26T05:30:07;99070.66;;;3.75;79.91
33506;BME280;19843;51.040;13.782;2024-02-26T05:32:36;99061.41;;;3.71;78.38
33506;BME280;19843;51.040;13.782;2024-02-26T05:35:04;99069.19;;;3.60;79.12
33506;BME280;19843;51.040;13.782;2024-02-26T05:37:32;99066.41;;;3.78;79.12
33506;BME280;19843;51.040;13.782;2024-02-26T05:40:00;99066.75;;;3.76;80.05
33506;BME280;19843;51.040;13.782;2024-02-26T05:42:27;99062.88;;;3.60;81.64
33506;BME280;19843;51.040;13.782;2024-02-26T05:44:54;99076.81;;;3.64;82.26
33506;BME280;19843;51.040;13.782;2024-02-26T05:47:22;99068.56;;;3.55;83.26
33506;BME280;19843;51.040;13.782;2024-02-26T05:49:51;99077.13;;;3.79;82.48
33506;BME280;19843;51.040;13.782;2024-02-26T05:52:18;99076.00;;;3.80;80.52
33506;BME280;19843;51.040;13.782;2024-02-26T05:54:48;99072.75;;;3.78;80.15
33506;BME280;19843;51.040;13.782;2024-02-26T05:57:16;99075.97;;;3.89;79.87
33506;BME280;19843;51.040;13.782;2024-02-26T05:59:44;99080.72;;;3.71;80.98
33506;BME280;19843;51.040;13.782;2024-02-26T06:02:12;99081.34;;;3.77;82.69
33506;BME280;19843;51.040;13.782;2024-02-26T06:04:39;99083.13;;;3.81;84.14
33506;BME280;19843;51.040;13.782;2024-02-26T06:07:08;99082.44;;;4.02;83.41
33506;BME280;19843;51.040;13.782;2024-02-26T06:09:36;99077.34;;;4.21;82.68
33506;BME280;19843;51.040;13.782;2024-02-26T06:12:04;99083.25;;;3.94;85.54
33506;BME280;19843;51.040;13.782;2024-02-26T06:14:31;99081.34;;;3.85;85.93
33506;BME280;19843;51.040;13.782;2024-02-26T06:16:59;99087.38;;;4.26;84.74
33506;BME280;19843;51.040;13.782;2024-02-26T06:19:26;99083.56;;;4.48;82.09
33506;BME280;19843;51.040;13.782;2024-02-26T06:21:54;99079.78;;;4.61;80.41
33506;BME280;19843;51.040;13.782;2024-02-26T06:24:23;99075.47;;;4.43;80.35
33506;BME280;19843;51.040;13.782;2024-02-26T06:26:50;99086.38;;;4.39;81.08
33506;BME280;19843;51.040;13.782;2024-02-26T06:29:18;99083.47;;;4.65;80.20
33506;BME280;19843;51.040;13.782;2024-02-26T06:31:45;99085.56;;;4.68;79.59
33506;BME280;19843;51.040;13.782;2024-02-26T06:34:14;99087.38;;;4.64;80.50
33506;BME280;19843;51.040;13.782;2024-02-26T06:36:42;99095.25;;;4.83;80.18
33506;BME280;19843;51.040;13.782;2024-02-26T06:39:09;99090.44;;;5.01;78.90
33506;BME280;19843;51.040;13.782;2024-02-26T06:41:38;99088.44;;;5.52;76.99
33506;BME280;19843;51.040;13.782;2024-02-26T06:44:05;99080.66;;;5.45;76.82
33506;BME280;19843;51.040;13.782;2024-02-26T06:46:33;99091.03;;;5.69;76.22
33506;BME280;19843;51.040;13.782;2024-02-26T06:49:00;99088.22;;;5.57;76.66
33506;BME280;19843;51.040;13.782;2024-02-26T06:51:28;99079.97;;;5.48;78.46
33506;BME280;19843;51.040;13.782;2024-02-26T06:53:56;99071.69;;;5.81;76.56
33506;BME280;19843;51.040;13.782;2024-02-26T06:56:23;99075.53;;;5.89;76.50
33506;BME280;19843;51.040;13.782;2024-02-26T06:58:52;99080.91;;;6.06;75.96
33506;BME280;19843;51.040;13.782;2024-02-26T07:01:20;99081.53;;;6.24;74.86
33506;BME280;19843;51.040;13.782;2024-02-26T07:03:47;99086.63;;;6.34;75.21
33506;BME280;19843;51.040;13.782;2024-02-26T07:06:15;99073.63;;;6.02;76.07
33506;BME280;19843;51.040;13.782;2024-02-26T07:08:43;99081.72;;;6.07;76.45
33506;BME280;19843;51.040;13.782;2024-02-26T07:11:10;99090.69;;;6.49;75.17
33506;BME280;19843;51.040;13.782;2024-02-26T07:13:38;99086.53;;;6.67;74.87
33506;BME280;19843;51.040;13.782;2024-02-26T07:16:09;99094.03;;;6.55;75.24
33506;BME280;19843;51.040;13.782;2024-02-26T07:18:36;99088.28;;;6.72;74.51
33506;BME280;19843;51.040;13.782;2024-02-26T07:21:04;99088.84;;;6.78;75.57
33506;BME280;19843;51.040;13.782;2024-02-26T07:23:31;99088.84;;;6.41;75.59
33506;BME280;19843;51.040;13.782;2024-02-26T07:25:59;99086.28;;;6.24;76.47
33506;BME280;19843;51.040;13.782;2024-02-26T07:28:26;99084.09;;;6.29;76.69
33506;BME280;19843;51.040;13.782;2024-02-26T07:30:54;99090.25;;;6.72;75.12
33506;BME280;19843;51.040;13.782;2024-02-26T07:33:23;99088.81;;;7.02;75.08
33506;BME280;19843;51.040;13.782;2024-02-26T07:35:51;99087.28;;;7.29;73.92
33506;BME280;19843;51.040;13.782;2024-02-26T07:38:20;99084.44;;;7.13;73.65
33506;BME280;19843;51.040;13.782;2024-02-26T07:41:07;99087.50;;;7.36;73.22
33506;BME280;19843;51.040;13.782;2024-02-26T07:43:34;99095.97;;;7.15;73.17
33506;BME280;19843;51.040;13.782;2024-02-26T07:46:02;99090.94;;;7.46;72.83
33506;BME280;19843;51.040;13.782;2024-02-26T07:48:31;99093.09;;;7.64;72.30
33506;BME280;19843;51.040;13.782;2024-02-26T07:50:59;99093.06;;;7.92;71.48
33506;BME280;19843;51.040;13.782;2024-02-26T07:53:27;99079.72;;;8.58;69.96
33506;BME280;19843;51.040;13.782;2024-02-26T07:55:54;99081.53;;;8.50;70.04
33506;BME280;19843;51.040;13.782;2024-02-26T07:58:22;99081.25;;;8.71;70.20
33506;BME280;19843;51.040;13.782;2024-02-26T08:00:50;99077.97;;;9.01;68.21
33506;BME280;19843;51.040;13.782;2024-02-26T08:03:17;99085.75;;;9.27;68.06
33506;BME280;19843;51.040;13.782;2024-02-26T08:05:47;99080.81;;;9.20;68.25
33506;BME280;19843;51.040;13.782;2024-02-26T08:08:14;99085.78;;;9.65;68.11
33506;BME280;19843;51.040;13.782;2024-02-26T08:10:42;99087.38;;;9.47;68.21
33506;BME280;19843;51.040;13.782;2024-02-26T08:13:09;99084.88;;;9.81;67.75
33506;BME280;19843;51.040;13.782;2024-02-26T08:15:37;99080.53;;;9.44;69.56
33506;BME280;19843;51.040;13.782;2024-02-26T08:18:05;99082.75;;;9.93;68.08
33506;BME280;19843;51.040;13.782;2024-02-26T08:20:32;99086.88;;;10.42;66.81
33506;BME280;19843;51.040;13.782;2024-02-26T08:23:01;99080.34;;;10.80;65.68
33506;BME280;19843;51.040;13.782;2024-02-26T08:25:28;99096.31;;;9.95;68.04
33506;BME280;19843;51.040;13.782;2024-02-26T08:27:56;99097.41;;;10.29;67.25
33506;BME280;19843;51.040;13.782;2024-02-26T08:30:23;99095.63;;;10.40;66.55
33506;BME280;19843;51.040;13.782;2024-02-26T08:32:52;99089.28;;;10.66;67.25
33506;BME280;19843;51.040;13.782;2024-02-26T08:35:20;99104.50;;;10.69;67.63
33506;BME280;19843;51.040;13.782;2024-02-26T08:37:47;99098.38;;;10.86;66.50
33506;BME280;19843;51.040;13.782;2024-02-26T08:40:16;99100.34;;;11.35;65.59
33506;BME280;19843;51.040;13.782;2024-02-26T08:42:45;99097.44;;;11.01;66.07
33506;BME280;19843;51.040;13.782;2024-02-26T08:45:13;99101.72;;;11.48;64.80
33506;BME280;19843;51.040;13.782;2024-02-26T08:47:40;99098.91;;;11.48;64.61
33506;BME280;19843;51.040;13.782;2024-02-26T08:50:08;99100.97;;;10.98;64.85
33506;BME280;19843;51.040;13.782;2024-02-26T08:52:38;99092.56;;;11.21;65.64
33506;BME280;19843;51.040;13.782;2024-02-26T08:55:07;99099.16;;;10.60;67.46
33506;BME280;19843;51.040;13.782;2024-02-26T08:57:36;99097.56;;;11.35;66.14
33506;BME280;19843;51.040;13.782;2024-02-26T09:00:06;99099.47;;;11.88;63.79
33506;BME280;19843;51.040;13.782;2024-02-26T09:02:33;99099.72;;;12.09;62.12
33506;BME280;19843;51.040;13.782;2024-02-26T09:05:01;99107.25;;;12.05;63.20
33506;BME280;19843;51.040;13.782;2024-02-26T09:07:28;99104.41;;;11.71;63.41
33506;BME280;19843;51.040;13.782;2024-02-26T09:09:56;99103.75;;;12.12;62.79
33506;BME280;19843;51.040;13.782;2024-02-26T09:12:23;99100.81;;;12.79;60.48
33506;BME280;19843;51.040;13.782;2024-02-26T09:14:52;99081.63;;;11.99;63.19
33506;BME280;19843;51.040;13.782;2024-02-26T09:17:22;99092.50;;;12.08;62.68
33506;BME280;19843;51.040;13.782;2024-02-26T09:19:49;99094.53;;;11.77;62.95
33506;BME280;19843;51.040;13.782;2024-02-26T09:22:17;99093.19;;;11.98;62.88
33506;BME280;19843;51.040;13.782;2024-02-26T09:24:44;99082.25;;;11.86;62.93
33506;BME280;19843;51.040;13.782;2024-02-26T09:27:12;99095.34;;;12.52;60.14
33506;BME280;19843;51.040;13.782;2024-02-26T09:29:39;99099.34;;;11.50;63.86
33506;BME280;19843;51.040;13.782;2024-02-26T09:32:08;99099.22;;;11.70;63.05
33506;BME280;19843;51.040;13.782;2024-02-26T09:34:35;99107.00;;;12.17;62.47
33506;BME280;19843;51.040;13.782;2024-02-26T09:37:03;99096.72;;;12.69;60.08
33506;BME280;19843;51.040;13.782;2024-02-26T09:39:43;99100.13;;;12.93;61.32
33506;BME280;19843;51.040;13.782;2024-02-26T09:42:12;99095.47;;;12.63;60.36
33506;BME280;19843;51.040;13.782;2024-02-26T09:44:40;99107.97;;;12.73;59.69
33506;BME280;19843;51.040;13.782;2024-02-26T09:47:11;99107.97;;;11.98;61.83
33506;BME280;19843;51.040;13.782;2024-02-26T09:49:39;99104.09;;;12.44;61.10
33506;BME280;19843;51.040;13.782;2024-02-26T09:52:08;99110.81;;;12.80;59.18
33506;BME280;19843;51.040;13.782;2024-02-26T09:54:35;99095.97;;;13.24;58.78
33506;BME280;19843;51.040;13.782;2024-02-26T09:57:03;99088.03;;;13.29;58.99
33506;BME280;19843;51.040;13.782;2024-02-26T09:59:38;99094.31;;;13.89;56.70
33506;BME280;19843;51.040;13.782;2024-02-26T10:02:11;99105.25;;;13.31;57.86
33506;BME280;19843;51.040;13.782;2024-02-26T10:04:39;99114.94;;;14.43;55.25
33506;BME280;19843;51.040;13.782;2024-02-26T10:07:10;99103.91;;;13.84;56.61
33506;BME280;19843;51.040;13.782;2024-02-26T10:09:37;99114.50;;;14.30;55.31
33506;BME280;19843;51.040;13.782;2024-02-26T10:12:09;99123.59;;;13.91;55.64
33506;BME280;19843;51.040;13.782;2024-02-26T10:14:37;99114.44;;;13.32;57.25
33506;BME280;19843;51.040;13.782;2024-02-26T10:17:07;99126.06;;;13.30;57.85
33506;BME280;19843;51.040;13.782;2024-02-26T10:19:37;99126.06;;;13.30;57.15
33506;BME280;19843;51.040;13.782;2024-02-26T10:22:05;99117.66;;;13.30;56.80
33506;BME280;19843;51.040;13.782;2024-02-26T10:24:33;99127.56;;;13.83;55.51
33506;BME280;19843;51.040;13.782;2024-02-26T10:27:02;99126.28;;;13.70;55.13
33506;BME280;19843;51.040;13.782;2024-02-26T10:29:29;99120.50;;;14.25;54.72
33506;BME280;19843;51.040;13.782;2024-02-26T10:31:57;99124.13;;;14.25;54.12
33506;BME280;19843;51.040;13.782;2024-02-26T10:34:24;99125.72;;;14.23;53.89
33506;BME280;19843;51.040;13.782;2024-02-26T10:36:54;99120.47;;;14.11;53.81
33506;BME280;19843;51.040;13.782;2024-02-26T10:39:22;99115.41;;;14.70;53.15
33506;BME280;19843;51.040;13.782;2024-02-26T10:41:50;99109.66;;;14.16;53.63
33506;BME280;19843;51.040;13.782;2024-02-26T10:44:17;99120.88;;;14.13;53.78
33506;BME280;19843;51.040;13.782;2024-02-26T10:46:46;99122.13;;;14.26;53.93
33506;BME280;19843;51.040;13.782;2024-02-26T10:49:15;99127.00;;;14.43;53.94
33506;BME280;19843;51.040;13.782;2024-02-26T10:51:48;99119.00;;;14.56;53.11
33506;BME280;19843;51.040;13.782;2024-02-26T10:54:20;99126.50;;;14.16;54.22
33506;BME280;19843;51.040;13.782;2024-02-26T10:56:49;99118.84;;;14.13;53.76
33506;BME280;19843;51.040;13.782;2024-02-26T10:59:18;99116.19;;;14.49;53.26
33506;BME280;19843;51.040;13.782;2024-02-26T11:01:47;99117.91;;;13.18;55.73
33506;BME280;19843;51.040;13.782;2024-02-26T11:04:16;99124.22;;;13.04;56.23
33506;BME280;19843;51.040;13.782;2024-02-26T11:06:45;99119.28;;;14.15;54.66
33506;BME280;19843;51.040;13.782;2024-02-26T11:09:14;99125.75;;;13.46;54.85
33506;BME280;19843;51.040;13.782;2024-02-26T11:11:44;99114.06;;;14.17;53.97
33506;BME280;19843;51.040;13.782;2024-02-26T11:14:12;99114.13;;;13.44;55.64
33506;BME280;19843;51.040;13.782;2024-02-26T11:16:40;99122.56;;;12.96;57.04
33506;BME280;19843;51.040;13.782;2024-02-26T11:19:10;99117.94;;;13.84;55.11
33506;BME280;19843;51.040;13.782;2024-02-26T11:21:40;99117.22;;;14.05;54.13
33506;BME280;19843;51.040;13.782;2024-02-26T11:24:12;99123.63;;;14.02;54.08
33506;BME280;19843;51.040;13.782;2024-02-26T11:26:42;99113.03;;;13.60;55.40
33506;BME280;19843;51.040;13.782;2024-02-26T11:29:14;99107.38;;;13.56;55.06
33506;BME280;19843;51.040;13.782;2024-02-26T11:31:43;99111.19;;;13.92;53.85
33506;BME280;19843;51.040;13.782;2024-02-26T11:34:11;99114.84;;;14.07;54.10
33506;BME280;19843;51.040;13.782;2024-02-26T11:36:39;99116.69;;;13.74;54.80
33506;BME280;19843;51.040;13.782;2024-02-26T11:39:06;99115.91;;;13.77;54.35
33506;BME280;19843;51.040;13.782;2024-02-26T11:41:34;99118.50;;;14.29;53.31
33506;BME280;19843;51.040;13.782;2024-02-26T11:44:03;99111.47;;;13.76;54.23
33506;BME280;19843;51.040;13.782;2024-02-26T11:46:39;99116.00;;;12.78;56.78
33506;BME280;19843;51.040;13.782;2024-02-26T11:49:31;99115.28;;;13.36;55.46
33506;BME280;19843;51.040;13.782;2024-02-26T11:51:59;99109.63;;;13.32;55.41
33506;BME280;19843;51.040;13.782;2024-02-26T11:54:43;99107.94;;;13.83;54.14
33506;BME280;19843;51.040;13.782;2024-02-26T11:57:24;99097.22;;;14.14;53.04
33506;BME280;19843;51.040;13.782;2024-02-26T11:59:54;99104.06;;;14.27;52.95
33506;BME280;19843;51.040;13.782;2024-02-26T12:02:43;99107.72;;;13.44;54.97
33506;BME280;19843;51.040;13.782;2024-02-26T12:05:13;99105.63;;;14.10;53.10
33506;BME280;19843;51.040;13.782;2024-02-26T12:07:45;99107.50;;;13.81;53.51
33506;BME280;19843;51.040;13.782;2024-02-26T12:10:15;99111.31;;;13.41;54.85
33506;BME280;19843;51.040;13.782;2024-02-26T12:12:44;99109.31;;;12.93;54.49
33506;BME280;19843;51.040;13.782;2024-02-26T12:15:15;99123.53;;;12.70;56.29
33506;BME280;19843;51.040;13.782;2024-02-26T12:17:48;99113.69;;;13.42;54.87
33506;BME280;19843;51.040;13.782;2024-02-26T12:20:17;99114.53;;;13.46;54.74
33506;BME280;19843;51.040;13.782;2024-02-26T12:22:46;99123.72;;;13.43;54.01
33506;BME280;19843;51.040;13.782;2024-02-26T12:25:15;99124.53;;;12.92;55.96
33506;BME280;19843;51.040;13.782;2024-02-26T12:27:43;99126.59;;;13.54;54.54
33506;BME280;19843;51.040;13.782;2024-02-26T12:30:12;99135.13;;;13.75;54.24
33506;BME280;19843;51.040;13.782;2024-02-26T12:32:39;99133.16;;;13.21;54.46
33506;BME280;19843;51.040;13.782;2024-02-26T12:35:08;99126.69;;;13.68;54.01
33506;BME280;19843;51.040;13.782;2024-02-26T12:37:36;99115.03;;;13.63;53.46
33506;BME280;19843;51.040;13.782;2024-02-26T12:40:09;99130.22;;;13.54;54.29
33506;BME280;19843;51.040;13.782;2024-02-26T12:42:38;99127.28;;;14.17;52.54
33506;BME280;19843;51.040;13.782;2024-02-26T12:45:07;99130.63;;;14.54;51.76
33506;BME280;19843;51.040;13.782;2024-02-26T12:47:37;99116.88;;;14.17;52.26
33506;BME280;19843;51.040;13.782;2024-02-26T12:50:06;99125.63;;;14.05;52.40
33506;BME280;19843;51.040;13.782;2024-02-26T12:52:38;99115.13;;;13.80;53.23
33506;BME280;19843;51.040;13.782;2024-02-26T12:55:07;99123.22;;;14.00;53.35
33506;BME280;19843;51.040;13.782;2024-02-26T12:57:36;99127.63;;;14.04;53.39
33506;BME280;19843;51.040;13.782;2024-02-26T13:00:06;99121.66;;;14.06;52.93
33506;BME280;19843;51.040;13.782;2024-02-26T13:02:36;99123.78;;;13.50;53.40
33506;BME280;19843;51.040;13.782;2024-02-26T13:05:05;99125.53;;;13.80;53.03